createdAt,value
2019-05-28T00:00:03.768Z,10.89
2019-05-28T00:02:33.035Z,10.89
2019-05-28T00:05:02.245Z,10.87
2019-05-28T00:07:31.530Z,10.88
2019-05-28T00:10:00.870Z,10.83
2019-05-28T00:12:30.117Z,10.79
2019-05-28T00:14:59.318Z,10.73
2019-05-28T00:17:28.627Z,10.73
2019-05-28T00:19:57.906Z,10.70
2019-05-28T00:22:27.093Z,10.65
2019-05-28T00:24:56.289Z,10.64
2019-05-28T00:27:25.591Z,10.61
2019-05-28T00:29:54.868Z,10.48
2019-05-28T00:32:24.124Z,10.45
2019-05-28T00:34:53.315Z,10.42
2019-05-28T00:37:22.595Z,10.52
2019-05-28T00:39:51.813Z,10.46
2019-05-28T00:42:21.092Z,10.48
2019-05-28T00:44:50.495Z,10.58
2019-05-28T00:47:19.677Z,10.64
2019-05-28T00:49:49.873Z,10.67
2019-05-28T00:52:19.291Z,10.74
2019-05-28T00:54:48.491Z,10.76
2019-05-28T00:57:18.776Z,10.81
2019-05-28T00:59:50.094Z,10.84
2019-05-28T01:02:19.364Z,10.95
2019-05-28T01:04:48.602Z,11.00
2019-05-28T01:07:17.864Z,10.96
2019-05-28T01:09:47.047Z,11.07
2019-05-28T01:12:16.291Z,11.07
2019-05-28T01:14:45.499Z,11.08
2019-05-28T01:17:14.789Z,11.21
2019-05-28T01:19:44.006Z,11.20
2019-05-28T01:22:13.206Z,11.24
2019-05-28T01:24:42.385Z,11.20
2019-05-28T01:27:11.670Z,11.26
2019-05-28T01:29:40.823Z,11.17
2019-05-28T01:32:10.077Z,11.15
2019-05-28T01:34:39.289Z,11.14
2019-05-28T01:37:08.546Z,11.12
2019-05-28T01:39:37.858Z,11.07
2019-05-28T01:42:07.111Z,11.25
2019-05-28T01:44:36.277Z,11.29
2019-05-28T01:47:05.547Z,11.26
2019-05-28T01:49:34.742Z,11.27
2019-05-28T01:52:04.023Z,11.24
2019-05-28T01:54:33.313Z,11.28
2019-05-28T01:57:02.578Z,11.30
2019-05-28T01:59:31.789Z,11.33
2019-05-28T02:02:01.054Z,11.36
2019-05-28T02:04:30.295Z,11.35
2019-05-28T02:06:59.529Z,11.36
2019-05-28T02:09:28.812Z,11.30
2019-05-28T02:11:58.008Z,11.23
2019-05-28T02:14:27.235Z,11.23
2019-05-28T02:16:56.439Z,11.31
2019-05-28T02:19:25.724Z,11.21
2019-05-28T02:21:54.941Z,11.11
2019-05-28T02:24:24.154Z,11.13
2019-05-28T02:26:53.360Z,11.15
2019-05-28T02:29:22.595Z,11.18
2019-05-28T02:31:51.819Z,11.09
2019-05-28T02:34:21.048Z,11.09
2019-05-28T02:36:50.235Z,10.99
2019-05-28T02:39:19.685Z,11.01
2019-05-28T02:41:49.123Z,10.99
2019-05-28T02:44:18.303Z,10.96
2019-05-28T02:46:47.492Z,11.07
2019-05-28T02:49:16.690Z,11.07
2019-05-28T02:51:47.072Z,11.04
2019-05-28T02:54:16.926Z,11.13
2019-05-28T02:56:47.584Z,11.19
2019-05-28T02:59:18.511Z,11.25
2019-05-28T03:01:50.882Z,11.32
2019-05-28T03:04:23.911Z,11.36
2019-05-28T03:06:54.961Z,11.31
2019-05-28T03:09:26.448Z,11.34
2019-05-28T03:11:55.634Z,11.31
2019-05-28T03:14:24.858Z,11.21
2019-05-28T03:16:57.158Z,11.25
2019-05-28T03:19:27.759Z,11.27
2019-05-28T03:22:00.033Z,11.32
2019-05-28T03:24:31.719Z,11.40
2019-05-28T03:27:01.335Z,11.47
2019-05-28T03:29:30.598Z,11.51
2019-05-28T03:32:08.047Z,11.52
2019-05-28T03:34:30.916Z,11.53
2019-05-28T03:37:01.225Z,11.53
2019-05-28T03:39:31.110Z,11.55
2019-05-28T03:42:00.298Z,11.62
2019-05-28T03:44:29.565Z,11.61
2019-05-28T03:46:58.943Z,11.66
2019-05-28T03:49:28.206Z,11.65
2019-05-28T03:51:57.423Z,11.61
2019-05-28T03:54:26.687Z,11.66
2019-05-28T03:56:55.888Z,11.64
2019-05-28T03:59:25.131Z,11.65
2019-05-28T04:01:54.385Z,11.61
2019-05-28T04:04:23.585Z,11.68
2019-05-28T04:06:52.897Z,11.69
2019-05-28T04:09:22.215Z,11.72
2019-05-28T04:11:51.436Z,11.73
2019-05-28T04:14:20.730Z,11.81
2019-05-28T04:16:49.930Z,11.78
2019-05-28T04:19:19.288Z,11.81
2019-05-28T04:21:48.674Z,11.83
2019-05-28T04:24:17.922Z,11.87
2019-05-28T04:26:47.288Z,11.83
2019-05-28T04:29:16.544Z,11.90
2019-05-28T04:31:45.861Z,11.94
2019-05-28T04:34:15.133Z,12.00
2019-05-28T04:36:44.412Z,12.00
2019-05-28T04:39:13.613Z,11.97
2019-05-28T04:41:42.864Z,11.94
2019-05-28T04:44:12.178Z,11.80
2019-05-28T04:46:41.475Z,11.84
2019-05-28T04:49:10.742Z,11.88
2019-05-28T04:54:56.247Z,11.85
2019-05-28T04:57:25.608Z,12.03
2019-05-28T04:59:54.886Z,12.08
2019-05-28T05:02:24.147Z,12.00
2019-05-28T05:04:53.384Z,12.09
2019-05-28T05:07:22.725Z,12.04
2019-05-28T05:09:52.108Z,12.12
2019-05-28T05:12:21.677Z,12.01
2019-05-28T05:14:50.870Z,11.92
2019-05-28T05:17:20.087Z,11.84
2019-05-28T05:19:49.376Z,12.03
2019-05-28T05:22:18.628Z,11.97
2019-05-28T05:24:47.998Z,12.18
2019-05-28T05:27:17.404Z,12.12
2019-05-28T05:29:46.594Z,12.30
2019-05-28T05:32:15.863Z,12.30
2019-05-28T05:34:45.141Z,12.34
2019-05-28T05:37:14.395Z,12.47
2019-05-28T05:39:43.777Z,12.24
2019-05-28T05:42:13.260Z,12.16
2019-05-28T05:44:42.533Z,12.14
2019-05-28T05:47:11.872Z,12.37
2019-05-28T05:49:41.160Z,12.38
2019-05-28T05:52:10.403Z,12.45
2019-05-28T05:54:39.743Z,12.39
2019-05-28T05:57:08.968Z,12.62
2019-05-28T05:59:38.273Z,12.63
2019-05-28T06:02:07.548Z,12.56
2019-05-28T06:04:36.912Z,12.60
2019-05-28T06:07:06.193Z,12.55
2019-05-28T06:09:35.476Z,12.78
2019-05-28T06:12:04.868Z,12.47
2019-05-28T06:14:37.780Z,12.48
2019-05-28T06:17:05.279Z,12.62
2019-05-28T06:19:34.566Z,12.99
2019-05-28T06:22:03.829Z,13.10
2019-05-28T06:24:33.130Z,13.03
2019-05-28T06:27:02.366Z,13.69
2019-05-28T06:29:31.648Z,13.69
2019-05-28T06:32:00.838Z,13.64
2019-05-28T06:34:30.054Z,13.52
2019-05-28T06:36:59.402Z,13.23
2019-05-28T06:39:28.585Z,13.29
2019-05-28T06:41:57.771Z,13.20
2019-05-28T06:44:27.065Z,13.45
2019-05-28T06:46:56.290Z,13.66
2019-05-28T06:49:25.630Z,13.42
2019-05-28T06:51:54.898Z,13.29
2019-05-28T06:54:24.211Z,13.45
2019-05-28T06:56:53.408Z,13.40
2019-05-28T06:59:22.730Z,13.61
2019-05-28T07:01:51.900Z,13.45
2019-05-28T07:04:32.402Z,13.62
2019-05-28T07:06:52.014Z,13.84
2019-05-28T07:09:21.295Z,13.62
2019-05-28T07:11:50.461Z,13.77
2019-05-28T07:14:19.697Z,13.80
2019-05-28T07:16:53.339Z,14.20
2019-05-28T07:19:24.486Z,15.17
2019-05-28T07:21:50.770Z,15.59
2019-05-28T07:24:19.949Z,15.69
2019-05-28T07:26:49.179Z,15.72
2019-05-28T07:29:18.415Z,16.17
2019-05-28T07:31:47.653Z,16.38
2019-05-28T07:34:30.198Z,17.36
2019-05-28T07:36:47.980Z,18.68
2019-05-28T07:39:17.173Z,18.44
2019-05-28T07:41:46.345Z,16.76
2019-05-28T07:44:15.621Z,16.53
2019-05-28T07:46:44.877Z,15.31
2019-05-28T07:49:14.147Z,15.35
2019-05-28T07:51:43.339Z,15.49
2019-05-28T07:54:12.514Z,15.41
2019-05-28T07:56:41.835Z,15.50
2019-05-28T07:59:11.039Z,16.15
2019-05-28T08:01:40.252Z,15.66
2019-05-28T08:04:09.509Z,15.81
2019-05-28T08:06:53.672Z,15.71
2019-05-28T08:09:10.089Z,15.47
2019-05-28T08:11:39.376Z,15.30
2019-05-28T08:14:08.760Z,14.44
2019-05-28T08:16:51.971Z,14.60
2019-05-28T08:19:09.043Z,16.40
2019-05-28T08:21:38.305Z,17.12
2019-05-28T08:24:07.491Z,17.99
2019-05-28T08:26:36.745Z,18.46
2019-05-28T08:29:05.965Z,19.90
2019-05-28T08:31:35.273Z,18.52
2019-05-28T08:34:04.612Z,17.57
2019-05-28T08:36:33.893Z,16.73
2019-05-28T08:39:03.106Z,15.48
2019-05-28T08:41:32.388Z,15.48
2019-05-28T08:44:01.612Z,15.42
2019-05-28T08:46:30.900Z,18.10
2019-05-28T08:49:00.077Z,22.36
2019-05-28T08:51:29.343Z,22.12
2019-05-28T08:53:58.534Z,21.91
2019-05-28T08:56:27.739Z,23.58
2019-05-28T08:58:56.945Z,24.89
2019-05-28T09:01:27.331Z,24.82
2019-05-28T09:03:56.540Z,24.02
2019-05-28T09:06:27.266Z,24.56
2019-05-28T09:08:56.675Z,24.10
2019-05-28T09:11:25.950Z,23.38
2019-05-28T09:13:55.184Z,23.72
2019-05-28T09:16:24.493Z,22.60
2019-05-28T09:18:53.825Z,20.76
2019-05-28T09:21:23.016Z,23.15
2019-05-28T09:23:52.299Z,23.43
2019-05-28T09:26:21.499Z,22.92
2019-05-28T09:28:50.845Z,20.95
2019-05-28T09:31:20.041Z,19.40
2019-05-28T09:33:49.348Z,20.13
2019-05-28T09:36:18.721Z,21.93
2019-05-28T09:38:48.052Z,24.22
2019-05-28T09:41:17.381Z,24.51
2019-05-28T09:43:46.824Z,20.00
2019-05-28T09:46:16.088Z,19.63
2019-05-28T09:48:45.392Z,19.81
2019-05-28T09:51:14.554Z,22.24
2019-05-28T09:53:43.729Z,20.78
2019-05-28T09:56:13.019Z,22.20
2019-05-28T09:58:42.262Z,23.03
2019-05-28T10:01:11.575Z,23.93
2019-05-28T10:03:40.905Z,22.05
2019-05-28T10:06:16.772Z,24.03
2019-05-28T10:08:41.163Z,26.26
2019-05-28T10:11:10.373Z,22.19
2019-05-28T10:13:41.572Z,23.77
2019-05-28T10:16:10.610Z,23.16
2019-05-28T10:18:39.834Z,24.76
2019-05-28T10:21:18.228Z,25.22
2019-05-28T10:23:40.052Z,25.23
2019-05-28T10:26:09.318Z,24.21
2019-05-28T10:28:38.586Z,23.64
2019-05-28T10:31:07.803Z,24.35
2019-05-28T10:33:36.964Z,23.68
2019-05-28T10:36:06.207Z,25.32
2019-05-28T10:38:35.575Z,27.45
2019-05-28T10:41:05.176Z,28.16
2019-05-28T10:43:34.521Z,24.96
2019-05-28T10:46:03.956Z,24.71
2019-05-28T10:48:33.267Z,26.56
2019-05-28T10:51:02.544Z,26.94
2019-05-28T10:53:31.733Z,22.95
2019-05-28T10:56:00.935Z,22.32
2019-05-28T10:58:30.264Z,24.29
2019-05-28T11:00:59.491Z,22.55
2019-05-28T11:03:29.135Z,24.19
2019-05-28T11:05:58.399Z,24.76
2019-05-28T11:08:27.655Z,26.91
2019-05-28T11:10:56.939Z,26.59
2019-05-28T11:13:26.098Z,26.11
2019-05-28T11:15:55.315Z,26.13
2019-05-28T11:18:24.518Z,25.04
2019-05-28T11:20:53.793Z,25.95
2019-05-28T11:23:23.251Z,27.48
2019-05-28T11:25:52.541Z,26.77
2019-05-28T11:28:23.091Z,26.45
2019-05-28T11:33:34.790Z,26.25
2019-05-28T11:36:04.314Z,25.05
2019-05-28T11:38:33.703Z,25.71
2019-05-28T11:41:03.023Z,26.54
2019-05-28T11:43:32.260Z,26.23
2019-05-28T11:46:01.568Z,26.17
2019-05-28T11:48:30.803Z,26.62
2019-05-28T11:51:00.215Z,27.73
2019-05-28T11:53:29.472Z,27.37
2019-05-28T11:55:58.871Z,23.73
2019-05-28T11:58:28.126Z,22.70
2019-05-28T12:00:57.477Z,20.52
2019-05-28T12:03:26.706Z,19.52
2019-05-28T12:05:56.056Z,19.18
2019-05-28T12:08:25.257Z,19.19
2019-05-28T12:10:54.559Z,19.03
2019-05-28T12:13:23.890Z,19.12
2019-05-28T12:15:53.252Z,20.83
2019-05-28T12:18:22.554Z,23.22
2019-05-28T12:20:51.803Z,24.23
2019-05-28T12:23:21.113Z,21.72
2019-05-28T12:25:50.533Z,20.72
2019-05-28T12:28:36.424Z,17.91
2019-05-28T12:30:50.810Z,17.79
2019-05-28T12:33:20.292Z,18.12
2019-05-28T12:35:49.578Z,19.76
2019-05-28T12:38:18.975Z,18.10
2019-05-28T12:40:48.719Z,18.47
2019-05-28T12:43:18.203Z,19.28
2019-05-28T12:45:47.572Z,21.03
2019-05-28T12:48:16.993Z,20.39
2019-05-28T12:50:46.326Z,18.73
2019-05-28T12:53:26.002Z,18.34
2019-05-28T12:55:55.247Z,17.78
2019-05-28T12:58:40.875Z,18.08
2019-05-28T13:00:56.053Z,18.15
2019-05-28T13:03:25.345Z,17.85
2019-05-28T13:05:54.699Z,17.30
2019-05-28T13:08:25.167Z,18.01
2019-05-28T13:10:54.571Z,18.33
2019-05-28T13:13:23.933Z,17.58
2019-05-28T13:15:53.223Z,17.47
2019-05-28T13:18:22.520Z,16.87
2019-05-28T13:20:51.901Z,17.60
2019-05-28T13:23:21.350Z,17.30
2019-05-28T13:25:50.635Z,17.87
2019-05-28T13:28:19.938Z,19.19
2019-05-28T13:30:49.412Z,20.26
2019-05-28T13:33:18.910Z,21.41
2019-05-28T13:35:48.411Z,23.28
2019-05-28T13:38:27.007Z,24.74
2019-05-28T13:40:48.728Z,25.49
2019-05-28T13:43:18.084Z,23.93
2019-05-28T13:45:47.435Z,23.83
2019-05-28T13:48:16.808Z,22.43
2019-05-28T13:50:46.038Z,18.62
2019-05-28T13:53:15.289Z,18.45
2019-05-28T13:55:44.531Z,18.96
2019-05-28T13:58:13.822Z,21.04
2019-05-28T14:00:43.105Z,21.88
2019-05-28T14:03:12.443Z,20.27
2019-05-28T14:05:41.760Z,19.87
2019-05-28T14:08:11.251Z,20.85
2019-05-28T14:10:40.667Z,20.37
2019-05-28T14:13:09.907Z,20.09
2019-05-28T14:15:39.218Z,19.83
2019-05-28T14:18:08.681Z,21.65
2019-05-28T14:20:38.227Z,22.96
2019-05-28T14:23:07.587Z,21.85
2019-05-28T14:25:36.871Z,23.00
2019-05-28T14:28:06.256Z,22.83
2019-05-28T14:30:35.844Z,22.47
2019-05-28T14:33:05.246Z,21.94
2019-05-28T14:35:34.609Z,20.93
2019-05-28T14:38:04.081Z,20.11
2019-05-28T14:40:33.900Z,19.66
2019-05-28T14:43:03.589Z,20.01
2019-05-28T14:45:33.113Z,20.41
2019-05-28T14:48:02.445Z,19.35
2019-05-28T14:50:31.770Z,19.10
2019-05-28T14:53:01.034Z,19.54
2019-05-28T14:55:30.595Z,19.62
2019-05-28T14:57:59.874Z,20.06
2019-05-28T15:00:29.181Z,18.68
2019-05-28T15:02:58.513Z,17.95
2019-05-28T15:05:27.889Z,17.82
2019-05-28T15:07:57.219Z,16.68
2019-05-28T15:10:26.841Z,16.90
2019-05-28T15:12:56.247Z,18.29
2019-05-28T15:15:35.831Z,18.37
2019-05-28T15:17:56.576Z,17.58
2019-05-28T15:20:26.008Z,18.06
2019-05-28T15:22:55.300Z,19.03
2019-05-28T15:25:24.945Z,19.01
2019-05-28T15:27:54.283Z,19.16
2019-05-28T15:30:24.329Z,18.44
2019-05-28T15:32:53.647Z,17.71
2019-05-28T15:35:22.998Z,17.15
2019-05-28T15:37:52.171Z,16.85
2019-05-28T15:40:22.542Z,16.39
2019-05-28T15:43:05.043Z,16.45
2019-05-28T15:45:22.992Z,16.51
2019-05-28T15:47:52.457Z,16.51
2019-05-28T15:50:22.074Z,16.55
2019-05-28T15:52:51.371Z,16.47
2019-05-28T15:55:20.809Z,16.59
2019-05-28T15:57:50.223Z,17.10
2019-05-28T16:00:22.532Z,17.52
2019-05-28T16:02:52.127Z,17.67
2019-05-28T16:05:21.328Z,17.99
2019-05-28T16:07:50.785Z,18.86
2019-05-28T16:10:20.908Z,18.57
2019-05-28T16:12:50.372Z,18.74
2019-05-28T16:15:19.914Z,18.65
2019-05-28T16:17:49.276Z,18.56
2019-05-28T16:20:19.277Z,18.29
2019-05-28T16:22:48.794Z,18.14
2019-05-28T16:25:19.682Z,18.11
2019-05-28T16:27:49.103Z,17.78
2019-05-28T16:30:20.006Z,17.64
2019-05-28T16:32:49.301Z,17.47
2019-05-28T16:35:20.584Z,16.71
2019-05-28T16:37:49.963Z,16.51
2019-05-28T16:40:20.412Z,15.86
2019-05-28T16:42:49.774Z,15.86
2019-05-28T16:45:19.891Z,15.81
2019-05-28T16:47:49.193Z,15.95
2019-05-28T16:50:19.816Z,16.48
2019-05-28T16:52:49.056Z,16.79
2019-05-28T16:55:18.668Z,16.95
2019-05-28T16:57:47.988Z,16.54
2019-05-28T17:00:17.847Z,16.20
2019-05-28T17:02:47.094Z,16.22
2019-05-28T17:05:16.662Z,16.55
2019-05-28T17:07:45.852Z,16.55
2019-05-28T17:10:31.587Z,16.50
2019-05-28T17:12:46.669Z,16.88
2019-05-28T17:15:17.118Z,16.44
2019-05-28T17:17:46.626Z,16.14
2019-05-28T17:20:16.302Z,15.60
2019-05-28T17:22:45.586Z,15.26
2019-05-28T17:25:15.850Z,15.34
2019-05-28T17:27:45.114Z,15.63
2019-05-28T17:30:20.613Z,15.60
2019-05-28T17:32:46.119Z,15.50
2019-05-28T17:35:15.524Z,15.38
2019-05-28T17:37:44.960Z,15.44
2019-05-28T17:40:14.324Z,15.15
2019-05-28T17:42:43.625Z,14.38
2019-05-28T17:45:13.415Z,14.51
2019-05-28T17:47:44.314Z,14.28
2019-05-28T17:50:14.243Z,14.02
2019-05-28T17:52:44.111Z,14.07
2019-05-28T17:55:13.846Z,13.88
2019-05-28T17:57:43.253Z,14.12
2019-05-28T18:00:12.735Z,14.14
2019-05-28T18:02:42.281Z,13.95
2019-05-28T18:05:11.729Z,13.99
2019-05-28T18:07:41.009Z,13.94
2019-05-28T18:10:12.485Z,13.73
2019-05-28T18:12:42.049Z,13.79
2019-05-28T18:15:12.158Z,13.75
2019-05-28T18:17:41.408Z,13.57
2019-05-28T18:20:15.036Z,13.41
2019-05-28T18:22:43.543Z,13.30
2019-05-28T18:25:13.266Z,13.14
2019-05-28T18:27:42.672Z,13.04
2019-05-28T18:30:12.330Z,12.95
2019-05-28T18:32:41.646Z,12.88
2019-05-28T18:35:11.893Z,12.78
2019-05-28T18:37:41.217Z,12.71
2019-05-28T18:40:11.318Z,12.55
2019-05-28T18:42:40.696Z,12.49
2019-05-28T18:45:10.709Z,12.45
2019-05-28T18:47:40.937Z,12.33
2019-05-28T18:50:11.249Z,12.25
2019-05-28T18:52:40.631Z,12.18
2019-05-28T18:55:13.559Z,12.17
2019-05-28T18:57:42.909Z,12.00
2019-05-28T19:00:14.181Z,12.12
2019-05-28T19:02:43.721Z,12.12
2019-05-28T19:05:13.702Z,12.21
2019-05-28T19:07:43.072Z,12.24
2019-05-28T19:10:13.231Z,12.27
2019-05-28T19:12:42.570Z,12.41
2019-05-28T19:15:11.825Z,12.23
2019-05-28T19:17:41.522Z,12.27
2019-05-28T19:20:12.395Z,12.28
2019-05-28T19:22:41.755Z,12.20
2019-05-28T19:25:11.980Z,12.13
2019-05-28T19:27:41.237Z,12.16
2019-05-28T19:30:12.329Z,12.19
2019-05-28T19:32:41.604Z,12.15
2019-05-28T19:35:12.392Z,12.00
2019-05-28T19:37:42.882Z,11.81
2019-05-28T19:40:14.625Z,11.92
2019-05-28T19:42:44.141Z,11.95
2019-05-28T19:45:13.938Z,12.06
2019-05-28T19:47:43.351Z,11.89
2019-05-28T19:50:12.678Z,11.86
2019-05-28T19:52:42.156Z,11.72
2019-05-28T19:55:11.776Z,11.77
2019-05-28T19:57:41.058Z,11.71
2019-05-28T20:00:10.806Z,11.66
2019-05-28T20:02:40.297Z,11.49
2019-05-28T20:05:10.096Z,11.43
2019-05-28T20:07:39.540Z,11.42
2019-05-28T20:10:09.368Z,11.41
2019-05-28T20:12:38.741Z,11.43
2019-05-28T20:15:09.281Z,11.17
2019-05-28T20:17:38.680Z,11.17
2019-05-28T20:20:08.910Z,11.12
2019-05-28T20:22:38.553Z,11.10
2019-05-28T20:25:09.659Z,11.07
2019-05-28T20:27:39.033Z,11.05
2019-05-28T20:30:09.573Z,11.05
2019-05-28T20:32:39.204Z,11.04
2019-05-28T20:35:09.687Z,10.99
2019-05-28T20:37:38.973Z,10.92
2019-05-28T20:40:10.276Z,10.88
2019-05-28T20:42:39.924Z,11.05
2019-05-28T20:45:11.878Z,11.12
2019-05-28T20:47:41.498Z,11.08
2019-05-28T20:50:11.939Z,11.16
2019-05-28T20:52:41.358Z,11.17
2019-05-28T20:55:12.151Z,11.16
2019-05-28T20:57:41.672Z,11.19
2019-05-28T21:00:12.256Z,11.23
2019-05-28T21:02:41.633Z,11.38
2019-05-28T21:05:11.917Z,11.29
2019-05-28T21:07:41.295Z,11.28
2019-05-28T21:10:11.124Z,11.14
2019-05-28T21:12:44.475Z,11.20
2019-05-28T21:15:16.081Z,11.09
2019-05-28T21:17:44.760Z,10.95
2019-05-28T21:20:14.584Z,11.03
2019-05-28T21:22:44.015Z,10.85
2019-05-28T21:25:13.713Z,10.85
2019-05-28T21:27:43.066Z,10.75
2019-05-28T21:30:13.849Z,10.81
2019-05-28T21:32:43.539Z,10.84
2019-05-28T21:35:13.237Z,10.82
2019-05-28T21:37:42.812Z,10.66
2019-05-28T21:40:12.811Z,10.57
2019-05-28T21:42:42.106Z,10.65
2019-05-28T21:45:13.221Z,10.68
2019-05-28T21:47:42.633Z,10.75
2019-05-28T21:50:12.756Z,10.80
2019-05-28T21:52:42.166Z,10.82
2019-05-28T21:55:13.207Z,10.80
2019-05-28T21:57:42.657Z,10.83
2019-05-28T22:00:17.930Z,10.71
2019-05-28T22:02:47.430Z,10.65
2019-05-28T22:05:16.950Z,10.76
2019-05-28T22:07:46.396Z,10.63
2019-05-28T22:10:15.834Z,10.84
2019-05-28T22:12:45.202Z,10.99
2019-05-28T22:15:14.980Z,11.05
2019-05-28T22:17:44.559Z,10.80
2019-05-28T22:20:14.310Z,10.73
2019-05-28T22:22:43.685Z,10.70
2019-05-28T22:25:13.382Z,10.75
2019-05-28T22:27:42.777Z,10.63
2019-05-28T22:30:13.841Z,10.57
2019-05-28T22:32:43.114Z,10.55
2019-05-28T22:35:12.581Z,10.58
2019-05-28T22:37:41.914Z,10.65
2019-05-28T22:40:12.117Z,10.63
2019-05-28T22:42:41.439Z,10.61
2019-05-28T22:45:11.518Z,10.64
2019-05-28T22:47:40.943Z,10.64
2019-05-28T22:50:22.168Z,10.56
2019-05-28T22:52:41.667Z,10.61
2019-05-28T22:55:11.062Z,10.58
2019-05-28T22:57:40.373Z,10.64
2019-05-28T23:00:10.372Z,10.66
2019-05-28T23:02:39.890Z,10.59
2019-05-28T23:05:10.581Z,10.79
2019-05-28T23:07:39.940Z,10.78
2019-05-28T23:10:11.187Z,10.72
2019-05-28T23:12:40.505Z,10.72
2019-05-28T23:15:10.556Z,10.75
2019-05-28T23:17:40.159Z,10.75
2019-05-28T23:20:11.206Z,10.88
2019-05-28T23:22:40.834Z,10.94
2019-05-28T23:27:36.181Z,11.03
2019-05-28T23:30:20.538Z,10.97
2019-05-28T23:32:37.885Z,10.88
2019-05-28T23:35:08.750Z,10.76
2019-05-28T23:37:38.526Z,10.66
2019-05-28T23:40:09.337Z,10.57
2019-05-28T23:42:38.978Z,10.57
2019-05-28T23:45:09.895Z,10.53
2019-05-28T23:47:39.613Z,10.45
2019-05-28T23:50:14.436Z,10.40
2019-05-28T23:52:40.509Z,10.39
2019-05-28T23:55:10.060Z,10.36
2019-05-28T23:57:39.288Z,10.44
